Jay Em, Wyoming
Current Conditions -  °F | °C
As of 8:15 PM on Saturday 20 Dec 2014 (Local Time) from KGUR Reporting Station
Overcast Overcast  
Wind Chill: 42°   Ceiling: 10000
Heat Index: 47°   Visibility: 10mi
Dew Point: 32°   Wind: 14mph
Humidity: 55%   Direction: 250°WSW
Pressure: 29.89"   Gusts: 20mph
Location:  42.46°N, 104.37°W
Report Text: KGUR 210315Z AUTO 25012G17KT 10SM OVC100 09/00 A2989 RMK AO2 T00850000
Loading
Personal Weather Stations






























Interactive Weather Map New forecast layout! Learn more

10-Day Weather Forecast

Advertisements
Track Severe Weather on mobile